createdAt,value
2019-01-02T00:02:05.455Z,4.57
2019-01-02T00:04:36.195Z,5.53
2019-01-02T00:07:06.892Z,5.90
2019-01-02T00:09:37.733Z,5.63
2019-01-02T00:12:08.842Z,5.27
2019-01-02T00:14:39.549Z,5.70
2019-01-02T00:17:11.537Z,5.27
2019-01-02T00:19:42.166Z,5.70
2019-01-02T00:22:13.403Z,4.87
2019-01-02T00:24:44.461Z,5.37
2019-01-02T00:27:15.174Z,6.40
2019-01-02T00:29:46.182Z,5.30
2019-01-02T00:32:16.843Z,5.60
2019-01-02T00:34:48.362Z,4.57
2019-01-02T00:37:19.018Z,5.50
2019-01-02T00:39:49.673Z,5.93
2019-01-02T00:42:20.319Z,7.03
2019-01-02T00:44:50.959Z,5.73
2019-01-02T00:47:22.023Z,6.60
2019-01-02T00:49:52.667Z,6.00
2019-01-02T00:52:23.729Z,6.63
2019-01-02T00:54:54.391Z,5.43
2019-01-02T00:57:25.376Z,5.40
2019-01-02T00:59:56.042Z,5.87
2019-01-02T01:02:27.179Z,6.73
2019-01-02T01:04:57.863Z,5.30
2019-01-02T01:07:29.015Z,6.03
2019-01-02T01:09:59.700Z,5.73
2019-01-02T01:12:30.794Z,4.67
2019-01-02T01:15:01.471Z,5.50
2019-01-02T01:17:32.531Z,5.70
2019-01-02T01:20:03.189Z,6.80
2019-01-02T01:22:34.255Z,5.60
2019-01-02T01:25:04.903Z,5.13
2019-01-02T01:27:35.663Z,5.50
2019-01-02T01:30:09.417Z,5.90
2019-01-02T01:32:40.088Z,4.90
2019-01-02T01:35:17.092Z,5.90
2019-01-02T01:37:56.370Z,5.13
2019-01-02T01:40:27.024Z,5.93
2019-01-02T01:42:57.695Z,5.10
2019-01-02T01:45:28.794Z,5.67
2019-01-02T01:47:59.519Z,6.23
2019-01-02T01:50:30.248Z,6.10
2019-01-02T01:53:01.205Z,5.37
2019-01-02T01:55:31.862Z,5.80
2019-01-02T01:58:02.814Z,5.43
2019-01-02T02:00:33.568Z,5.10
2019-01-02T02:03:04.222Z,5.43
2019-01-02T02:05:35.244Z,5.00
2019-01-02T02:08:05.874Z,5.73
2019-01-02T02:10:36.525Z,6.17
2019-01-02T02:13:07.558Z,5.30
2019-01-02T02:15:39.037Z,5.20
2019-01-02T02:18:09.706Z,6.57
2019-01-02T02:20:40.775Z,5.43
2019-01-02T02:23:11.428Z,5.03
2019-01-02T02:25:42.459Z,5.80
2019-01-02T02:28:13.104Z,5.23
2019-01-02T02:30:43.976Z,5.37
2019-01-02T02:33:15.000Z,5.50
2019-01-02T02:35:46.168Z,5.60
2019-01-02T02:38:17.423Z,6.53
2019-01-02T02:40:49.173Z,5.53
2019-01-02T02:43:20.212Z,6.13
2019-01-02T02:45:50.855Z,6.33
2019-01-02T02:48:22.409Z,5.07
2019-01-02T02:50:53.458Z,5.03
2019-01-02T02:53:24.397Z,4.87
2019-01-02T02:55:55.288Z,5.83
2019-01-02T02:58:26.376Z,5.90
2019-01-02T03:00:57.430Z,5.57
2019-01-02T03:03:28.882Z,5.07
2019-01-02T03:05:59.512Z,5.47
2019-01-02T03:08:30.773Z,5.17
2019-01-02T03:11:01.802Z,5.53
2019-01-02T03:13:32.924Z,5.30
2019-01-02T03:16:03.976Z,5.13
2019-01-02T03:18:35.011Z,5.43
2019-01-02T03:21:05.677Z,5.50
2019-01-02T03:23:36.343Z,4.87
2019-01-02T03:26:07.107Z,5.67
2019-01-02T03:28:38.019Z,5.80
2019-01-02T03:31:09.050Z,5.53
2019-01-02T03:33:40.768Z,5.10
2019-01-02T03:36:11.468Z,5.27
2019-01-02T03:38:42.244Z,5.23
2019-01-02T03:41:13.121Z,4.83
2019-01-02T03:43:43.956Z,4.83
2019-01-02T03:46:14.616Z,4.73
2019-01-02T03:48:45.640Z,5.07
2019-01-02T03:51:17.055Z,5.10
2019-01-02T03:53:47.764Z,4.57
2019-01-02T03:56:18.445Z,4.10
2019-01-02T03:58:49.725Z,4.50
2019-01-02T04:01:20.368Z,4.67
2019-01-02T04:03:51.038Z,4.13
2019-01-02T04:06:21.664Z,3.70
2019-01-02T04:08:52.325Z,3.97
2019-01-02T04:11:22.970Z,3.80
2019-01-02T04:13:53.628Z,3.97
2019-01-02T04:16:24.277Z,3.73
2019-01-02T04:18:54.951Z,3.73
2019-01-02T04:21:25.635Z,3.90
2019-01-02T04:23:56.310Z,4.03
2019-01-02T04:26:26.973Z,3.97
2019-01-02T04:28:57.616Z,4.17
2019-01-02T04:31:28.305Z,4.23
2019-01-02T04:33:58.966Z,3.77
2019-01-02T04:36:29.613Z,3.53
2019-01-02T04:39:00.236Z,3.97
2019-01-02T04:41:30.991Z,3.40
2019-01-02T04:44:01.623Z,3.90
2019-01-02T04:46:32.706Z,3.67
2019-01-02T04:49:03.338Z,3.27
2019-01-02T04:51:34.176Z,3.73
2019-01-02T04:54:04.841Z,4.33
2019-01-02T04:56:35.953Z,3.90
2019-01-02T04:59:07.607Z,3.70
2019-01-02T05:01:38.409Z,3.40
2019-01-02T05:04:09.075Z,4.13
2019-01-02T05:06:40.464Z,3.87
2019-01-02T05:09:11.208Z,3.23
2019-01-02T05:11:43.465Z,2.60
2019-01-02T05:14:14.229Z,2.80
2019-01-02T05:16:45.584Z,2.33
2019-01-02T05:19:16.269Z,3.20
2019-01-02T05:21:46.954Z,2.30
2019-01-02T05:24:17.627Z,2.63
2019-01-02T05:26:48.315Z,2.50
2019-01-02T05:29:19.056Z,2.50
2019-01-02T05:31:50.114Z,2.73
2019-01-02T05:34:20.755Z,2.77
2019-01-02T05:36:51.412Z,2.10
2019-01-02T05:39:22.049Z,1.90
2019-01-02T05:41:53.967Z,2.20
2019-01-02T05:44:24.677Z,2.20
2019-01-02T05:46:55.389Z,2.00
2019-01-02T05:49:26.012Z,2.33
2019-01-02T05:51:56.675Z,1.97
2019-01-02T05:54:27.427Z,1.70
2019-01-02T05:56:58.165Z,1.77
2019-01-02T05:59:28.802Z,2.43
2019-01-02T06:01:59.437Z,1.83
2019-01-02T06:04:30.054Z,1.90
2019-01-02T06:07:00.747Z,2.63
2019-01-02T06:09:31.421Z,1.70
2019-01-02T06:12:02.105Z,1.60
2019-01-02T06:14:32.860Z,2.27
2019-01-02T06:17:03.539Z,2.07
2019-01-02T06:19:34.213Z,1.33
2019-01-02T06:22:04.874Z,1.20
2019-01-02T06:24:35.519Z,1.10
2019-01-02T06:27:06.184Z,1.30
2019-01-02T06:29:37.553Z,1.60
2019-01-02T06:32:08.398Z,1.67
2019-01-02T06:34:39.548Z,1.30
2019-01-02T06:37:10.185Z,1.50
2019-01-02T06:39:42.025Z,1.83
2019-01-02T06:42:12.651Z,1.40
2019-01-02T06:44:43.326Z,1.43
2019-01-02T06:47:13.982Z,1.53
2019-01-02T06:49:44.821Z,1.30
2019-01-02T06:52:15.487Z,1.93
2019-01-02T06:54:46.176Z,1.40
2019-01-02T06:57:16.856Z,1.70
2019-01-02T06:59:47.509Z,1.20
2019-01-02T07:02:19.278Z,1.10
2019-01-02T07:04:50.700Z,1.40
2019-01-02T07:07:21.420Z,1.33
2019-01-02T07:09:52.061Z,1.40
2019-01-02T07:12:22.744Z,1.50
2019-01-02T07:14:53.398Z,1.80
2019-01-02T07:17:24.079Z,1.40
2019-01-02T07:19:54.737Z,1.63
2019-01-02T07:22:25.385Z,2.03
2019-01-02T07:24:56.149Z,1.60
2019-01-02T07:27:27.886Z,1.60
2019-01-02T07:29:58.609Z,2.17
2019-01-02T07:32:29.333Z,1.70
2019-01-02T07:35:46.959Z,2.20
2019-01-02T07:39:12.917Z,1.77
2019-01-02T07:42:49.854Z,2.00
2019-01-02T07:46:52.116Z,1.83
2019-01-02T07:50:31.217Z,1.70
2019-01-02T07:53:56.242Z,1.90
2019-01-02T07:57:02.539Z,1.40
2019-01-02T08:00:47.341Z,1.60
2019-01-02T08:04:06.759Z,1.97
2019-01-02T08:07:41.324Z,1.20
2019-01-02T08:11:10.904Z,1.27
2019-01-02T08:14:40.097Z,1.40
2019-01-02T08:17:37.963Z,1.30
2019-01-02T08:21:14.674Z,1.30
2019-01-02T08:24:21.498Z,1.20
2019-01-02T08:27:59.622Z,1.27
2019-01-02T08:30:48.583Z,1.20
2019-01-02T08:34:07.616Z,1.47
2019-01-02T08:37:39.773Z,1.63
2019-01-02T08:40:59.161Z,1.13
2019-01-02T08:44:41.632Z,1.27
2019-01-02T08:48:15.442Z,1.30
2019-01-02T08:51:45.124Z,1.63
2019-01-02T08:55:18.171Z,1.00
2019-01-02T08:58:50.313Z,1.20
2019-01-02T09:02:37.255Z,1.13
2019-01-02T09:06:06.222Z,0.90
2019-01-02T09:09:45.366Z,1.67
2019-01-02T09:12:52.186Z,1.30
2019-01-02T09:16:27.527Z,1.17
2019-01-02T09:20:00.455Z,2.87
2019-01-02T09:24:04.527Z,1.50
2019-01-02T09:27:35.937Z,1.20
2019-01-02T09:31:08.008Z,1.50
2019-01-02T09:34:25.882Z,1.30
2019-01-02T09:38:01.103Z,1.63
2019-01-02T09:41:27.963Z,0.80
2019-01-02T09:44:30.024Z,1.10
2019-01-02T09:47:58.387Z,1.43
2019-01-02T09:51:19.467Z,1.20
2019-01-02T09:54:49.086Z,1.53
2019-01-02T09:58:10.632Z,1.20
2019-01-02T10:01:56.767Z,1.30
2019-01-02T10:05:16.881Z,1.10
2019-01-02T10:08:55.282Z,1.10
2019-01-02T10:11:56.019Z,1.00
2019-01-02T10:15:05.848Z,1.17
2019-01-02T10:18:43.178Z,1.27
2019-01-02T10:22:11.795Z,0.90
2019-01-02T10:25:38.823Z,1.30
2019-01-02T10:29:19.300Z,1.50
2019-01-02T10:32:43.075Z,0.93
2019-01-02T10:36:18.892Z,0.90
2019-01-02T10:39:38.744Z,1.30
2019-01-02T10:43:00.403Z,0.83
2019-01-02T10:46:15.563Z,1.13
2019-01-02T10:50:01.298Z,1.00
2019-01-02T10:53:33.859Z,1.40
2019-01-02T10:57:01.881Z,1.13
2019-01-02T11:00:51.093Z,0.93
2019-01-02T11:04:37.337Z,1.20
2019-01-02T11:08:44.384Z,1.10
2019-01-02T11:12:09.961Z,1.00
2019-01-02T11:15:31.443Z,1.07
2019-01-02T11:18:45.474Z,1.40
2019-01-02T11:22:11.649Z,0.90
2019-01-02T11:25:52.964Z,1.27
2019-01-02T11:29:37.378Z,0.90
2019-01-02T11:32:59.062Z,1.20
2019-01-02T11:36:27.458Z,1.23
2019-01-02T11:39:56.837Z,1.20
2019-01-02T11:43:11.056Z,1.10
2019-01-02T11:45:42.956Z,1.13
2019-01-02T11:48:13.705Z,1.30
2019-01-02T11:50:44.474Z,1.20
2019-01-02T11:53:15.177Z,0.90
2019-01-02T11:55:46.079Z,1.07
2019-01-02T11:58:16.817Z,1.10
2019-01-02T12:00:47.697Z,1.03
2019-01-02T12:03:18.432Z,0.97
2019-01-02T12:05:49.540Z,1.17
2019-01-02T12:08:20.360Z,1.23
2019-01-02T12:10:52.862Z,1.00
2019-01-02T12:13:25.737Z,1.27
2019-01-02T12:15:56.436Z,1.10
2019-01-02T12:18:27.147Z,1.00
2019-01-02T12:20:57.799Z,1.17
2019-01-02T12:23:28.462Z,1.50
2019-01-02T12:25:59.177Z,1.30
2019-01-02T12:28:30.037Z,1.27
2019-01-02T12:31:00.870Z,1.30
2019-01-02T12:33:31.637Z,1.40
2019-01-02T12:36:02.425Z,1.30
2019-01-02T12:38:33.608Z,1.00
2019-01-02T12:41:04.417Z,0.83
2019-01-02T12:43:35.059Z,0.97
2019-01-02T12:46:05.736Z,1.10
2019-01-02T12:48:36.353Z,1.13
2019-01-02T12:51:08.735Z,1.57
2019-01-02T12:53:43.737Z,0.90
2019-01-02T12:56:11.946Z,0.90
2019-01-02T12:58:42.634Z,1.40
2019-01-02T13:01:20.700Z,0.90
2019-01-02T13:04:52.948Z,0.70
2019-01-02T13:08:36.487Z,0.80
2019-01-02T13:11:51.782Z,1.10
2019-01-02T13:15:42.171Z,0.77
2019-01-02T13:19:33.761Z,0.80
2019-01-02T13:22:58.082Z,0.73
2019-01-02T13:25:53.952Z,1.27
2019-01-02T13:29:02.481Z,1.20
2019-01-02T13:32:04.297Z,0.70
2019-01-02T13:34:59.090Z,0.90
2019-01-02T13:38:17.288Z,0.97
2019-01-02T13:41:49.755Z,0.83
2019-01-02T13:45:01.026Z,1.00
2019-01-02T13:48:16.981Z,0.90
2019-01-02T13:51:24.174Z,0.80
2019-01-02T13:53:55.642Z,0.80
2019-01-02T13:56:28.315Z,0.70
2019-01-02T13:58:59.450Z,1.03
2019-01-02T14:01:30.111Z,0.83
2019-01-02T14:04:04.783Z,0.73
2019-01-02T14:06:36.576Z,0.73
2019-01-02T14:09:10.831Z,0.80
2019-01-02T14:11:41.498Z,0.87
2019-01-02T14:14:12.155Z,0.93
2019-01-02T14:16:42.789Z,0.93
2019-01-02T14:19:13.471Z,1.00
2019-01-02T14:21:45.996Z,0.77
2019-01-02T14:24:16.782Z,1.10
2019-01-02T14:26:47.525Z,0.90
2019-01-02T14:29:18.193Z,1.17
2019-01-02T14:31:49.927Z,0.80
2019-01-02T14:34:20.622Z,1.07
2019-01-02T14:36:51.327Z,1.00
2019-01-02T14:39:22.210Z,0.83
2019-01-02T14:41:53.001Z,0.63
2019-01-02T14:44:23.679Z,0.80
2019-01-02T14:46:54.603Z,0.90
2019-01-02T14:49:33.112Z,1.00
2019-01-02T14:52:04.206Z,2.07
2019-01-02T14:54:34.960Z,1.00
2019-01-02T14:57:05.614Z,1.10
2019-01-02T14:59:36.336Z,1.50
2019-01-02T15:02:07.085Z,0.93
2019-01-02T15:04:37.861Z,1.60
2019-01-02T15:07:08.542Z,1.07
2019-01-02T15:09:40.054Z,1.33
2019-01-02T15:12:10.759Z,1.80
2019-01-02T15:14:41.507Z,1.50
2019-01-02T15:17:12.204Z,1.70
2019-01-02T15:19:42.926Z,2.27
2019-01-02T15:22:13.608Z,1.90
2019-01-02T15:24:49.482Z,1.37
2019-01-02T15:27:17.101Z,1.53
2019-01-02T15:29:47.859Z,1.13
2019-01-02T15:32:18.515Z,0.93
2019-01-02T15:34:50.161Z,1.43
2019-01-02T15:37:20.760Z,1.50
2019-01-02T15:39:51.536Z,1.30
2019-01-02T15:42:22.132Z,1.40
2019-01-02T15:44:52.815Z,1.43
2019-01-02T15:47:23.434Z,1.20
2019-01-02T15:49:54.709Z,1.40
2019-01-02T15:52:25.352Z,1.00
2019-01-02T15:54:55.999Z,1.50
2019-01-02T15:57:26.688Z,1.30
2019-01-02T15:59:57.367Z,1.20
2019-01-02T16:02:28.033Z,1.20
2019-01-02T16:04:58.692Z,1.53
2019-01-02T16:07:29.556Z,1.20
2019-01-02T16:10:00.412Z,1.10
2019-01-02T16:12:31.119Z,1.57
2019-01-02T16:15:01.906Z,1.53
2019-01-02T16:17:38.349Z,1.00
2019-01-02T16:20:11.537Z,1.40
2019-01-02T16:22:44.310Z,1.73
2019-01-02T16:25:15.011Z,1.40
2019-01-02T16:27:46.004Z,1.57
2019-01-02T16:30:16.678Z,1.40
2019-01-02T16:32:47.311Z,1.33
2019-01-02T16:35:18.054Z,1.20
2019-01-02T16:37:48.958Z,1.80
2019-01-02T16:40:19.625Z,1.20
2019-01-02T16:42:54.200Z,1.20
2019-01-02T16:45:27.378Z,1.13
2019-01-02T16:48:03.313Z,1.00
2019-01-02T16:50:34.344Z,1.40
2019-01-02T16:53:05.021Z,1.50
2019-01-02T16:55:38.847Z,1.40
2019-01-02T16:58:09.726Z,1.37
2019-01-02T17:00:41.947Z,1.40
2019-01-02T17:03:13.312Z,1.30
2019-01-02T17:05:44.026Z,1.10
2019-01-02T17:08:14.795Z,1.60
2019-01-02T17:10:45.507Z,1.60
2019-01-02T17:13:16.170Z,1.37
2019-01-02T17:15:46.951Z,1.40
2019-01-02T17:18:17.666Z,1.60
2019-01-02T17:20:48.386Z,1.52
2019-01-02T17:23:19.441Z,1.67
2019-01-02T17:25:50.739Z,1.40
2019-01-02T17:28:21.557Z,1.20
2019-01-02T17:30:52.233Z,1.27
2019-01-02T17:33:22.957Z,1.33
2019-01-02T17:35:53.694Z,1.40
2019-01-02T17:38:24.486Z,1.20
2019-01-02T17:40:55.161Z,1.40
2019-01-02T17:43:25.923Z,1.10
2019-01-02T17:45:57.039Z,1.20
2019-01-02T17:48:28.067Z,1.20
2019-01-02T17:50:58.839Z,1.47
2019-01-02T17:53:30.691Z,1.30
2019-01-02T17:56:01.819Z,1.10
2019-01-02T17:58:32.833Z,1.33
2019-01-02T18:01:03.625Z,1.27
2019-01-02T18:03:34.300Z,1.27
2019-01-02T18:06:10.891Z,1.30
2019-01-02T18:08:38.748Z,1.30
2019-01-02T18:11:09.665Z,1.50
2019-01-02T18:13:40.593Z,1.53
2019-01-02T18:16:11.357Z,1.87
2019-01-02T18:18:43.228Z,1.70
2019-01-02T18:21:15.218Z,1.10
2019-01-02T18:23:45.914Z,1.20
2019-01-02T18:26:16.802Z,1.53
2019-01-02T18:28:47.741Z,1.30
2019-01-02T18:31:19.410Z,1.70
2019-01-02T18:33:50.065Z,1.50
2019-01-02T18:36:20.717Z,1.40
2019-01-02T18:38:51.377Z,1.40
2019-01-02T18:41:22.070Z,1.40
2019-01-02T18:43:53.198Z,1.10
2019-01-02T18:46:23.912Z,1.40
2019-01-02T18:48:54.639Z,1.13
2019-01-02T18:51:25.395Z,1.20
2019-01-02T18:53:56.127Z,1.27
2019-01-02T18:56:27.033Z,1.60
2019-01-02T18:58:57.722Z,1.30
2019-01-02T19:01:28.406Z,1.53
2019-01-02T19:03:59.124Z,1.70
2019-01-02T19:06:29.781Z,1.43
2019-01-02T19:09:11.180Z,1.50
2019-01-02T19:11:42.246Z,1.40
2019-01-02T19:14:18.674Z,1.10
2019-01-02T19:16:52.340Z,1.40
2019-01-02T19:19:23.111Z,1.17
2019-01-02T19:21:53.763Z,1.07
2019-01-02T19:24:24.402Z,1.30
2019-01-02T19:26:55.103Z,1.20
2019-01-02T19:29:25.756Z,1.23
2019-01-02T19:31:56.449Z,1.30
2019-01-02T19:34:27.099Z,1.50
2019-01-02T19:36:57.831Z,1.30
2019-01-02T19:39:28.579Z,1.63
2019-01-02T19:41:59.241Z,1.17
2019-01-02T19:44:30.008Z,0.90
2019-01-02T19:47:00.629Z,1.30
2019-01-02T19:49:31.328Z,0.93
2019-01-02T19:52:01.986Z,1.13
2019-01-02T19:54:34.516Z,1.17
2019-01-02T19:57:05.565Z,1.10
2019-01-02T19:59:36.766Z,1.27
2019-01-02T20:02:08.116Z,1.20
2019-01-02T20:04:39.485Z,1.40
2019-01-02T20:07:10.282Z,1.30
2019-01-02T20:09:42.607Z,1.33
2019-01-02T20:12:14.946Z,1.13
2019-01-02T20:14:46.505Z,1.10
2019-01-02T20:17:18.126Z,1.10
2019-01-02T20:19:50.836Z,1.10
2019-01-02T20:22:23.123Z,1.33
2019-01-02T20:24:55.121Z,1.10
2019-01-02T20:27:28.275Z,1.10
2019-01-02T20:29:58.936Z,1.40
2019-01-02T20:32:29.849Z,1.20
2019-01-02T20:35:01.486Z,1.20
2019-01-02T20:37:34.188Z,1.30
2019-01-02T20:40:05.383Z,1.13
2019-01-02T20:42:36.016Z,1.17
2019-01-02T20:45:07.292Z,1.53
2019-01-02T20:47:38.218Z,1.07
2019-01-02T20:50:12.600Z,1.27
2019-01-02T20:52:45.033Z,1.20
2019-01-02T20:55:15.726Z,1.20
2019-01-02T20:57:46.840Z,1.40
2019-01-02T21:00:17.527Z,1.23
2019-01-02T21:02:48.406Z,1.20
2019-01-02T21:05:19.646Z,1.00
2019-01-02T21:07:51.117Z,1.40
2019-01-02T21:10:21.960Z,1.30
2019-01-02T21:12:52.646Z,1.10
2019-01-02T21:15:23.808Z,1.07
2019-01-02T21:17:54.555Z,0.90
2019-01-02T21:20:25.745Z,1.20
2019-01-02T21:22:56.490Z,1.10
2019-01-02T21:25:27.405Z,1.60
2019-01-02T21:27:58.276Z,1.10
2019-01-02T21:30:28.970Z,1.20
2019-01-02T21:32:59.785Z,1.10
2019-01-02T21:35:30.439Z,1.20
2019-01-02T21:38:01.226Z,0.93
2019-01-02T21:40:34.606Z,0.90
2019-01-02T21:43:06.171Z,1.47
2019-01-02T21:45:36.825Z,1.30
2019-01-02T21:48:18.817Z,1.80
2019-01-02T21:50:59.762Z,1.00
2019-01-02T21:53:30.871Z,1.10
2019-01-02T21:56:01.633Z,1.23
2019-01-02T21:58:32.279Z,1.07
2019-01-02T22:01:02.971Z,1.40
2019-01-02T22:03:34.130Z,1.40
2019-01-02T22:06:04.814Z,1.20
2019-01-02T22:08:35.560Z,1.30
2019-01-02T22:11:06.224Z,1.70
2019-01-02T22:13:37.015Z,1.50
2019-01-02T22:16:07.719Z,1.10
2019-01-02T22:18:40.054Z,1.70
2019-01-02T22:21:10.800Z,1.30
2019-01-02T22:23:41.734Z,1.00
2019-01-02T22:26:12.464Z,1.50
2019-01-02T22:28:43.107Z,1.40
2019-01-02T22:31:13.892Z,1.03
2019-01-02T22:33:45.218Z,1.73
2019-01-02T22:36:15.870Z,1.60
2019-01-02T22:38:46.579Z,1.30
2019-01-02T22:41:17.584Z,1.20
2019-01-02T22:43:48.315Z,1.50
2019-01-02T22:46:18.950Z,1.73
2019-01-02T22:48:49.610Z,1.10
2019-01-02T22:51:20.738Z,1.57
2019-01-02T22:53:51.403Z,1.17
2019-01-02T22:56:22.045Z,1.33
2019-01-02T22:58:53.874Z,1.20
2019-01-02T23:01:29.572Z,1.37
2019-01-02T23:04:19.073Z,1.30
2019-01-02T23:07:07.310Z,1.20
2019-01-02T23:09:55.707Z,1.20
2019-01-02T23:12:48.321Z,1.20
2019-01-02T23:15:33.799Z,1.53
2019-01-02T23:18:32.687Z,1.30
2019-01-02T23:21:22.919Z,1.40
2019-01-02T23:24:15.590Z,1.13
2019-01-02T23:27:04.889Z,1.40
2019-01-02T23:30:03.833Z,1.20
2019-01-02T23:33:01.092Z,1.07
2019-01-02T23:35:56.942Z,1.10
2019-01-02T23:38:49.495Z,1.20
2019-01-02T23:41:38.368Z,1.40
2019-01-02T23:44:27.886Z,1.23
2019-01-02T23:47:17.471Z,0.90
2019-01-02T23:50:10.266Z,1.13
2019-01-02T23:52:59.009Z,1.30
2019-01-02T23:56:00.950Z,1.10
2019-01-02T23:58:57.034Z,1.90
